This is the latest recevied weather packets stored in our database for station/object XQ6AK-15. If no packets are shown the sender has not sent any weather packets the latest 10 day(s).
| Time | Temp. | Humidity | Pressure | Rain* | Wind** | Luminosity | Snow |
|---|---|---|---|---|---|---|---|
| 1777574485 | 12.78° C | 95% | 1008.8 hPa | 0 mm | - | 81 W/m² | - |
| 1777574180 | 12.78° C | 94% | 1008.7 hPa | 0 mm | - | 123 W/m² | - |
| 1777573870 | 12.78° C | 93% | 1008.7 hPa | 0 mm | - | 155 W/m² | - |
| 1777573565 | 12.78° C | 93% | 1008.9 hPa | 0 mm | - | 150 W/m² | - |
| 1777573262 | 12.22° C | 93% | 1008.9 hPa | 0 mm | - | 125 W/m² | - |
| 1777572958 | 12.22° C | 93% | 1008.9 hPa | 0 mm | - | 130 W/m² | - |
| 1777572654 | 12.22° C | 92% | 1009 hPa | 0 mm | - | 75 W/m² | - |
| 1777572353 | 12.22° C | 92% | 1009.1 hPa | 0 mm | - | 89 W/m² | - |
| 1777572050 | 12.78° C | 91% | 1008.9 hPa | 0 mm | - | 134 W/m² | - |
| 1777571750 | 12.78° C | 91% | 1009.1 hPa | 0 mm | - | 161 W/m² | - |
| 1777571448 | 12.78° C | 92% | 1009.1 hPa | 0 mm | - | 269 W/m² | - |
| 1777571144 | 12.22° C | 92% | 1009.1 hPa | 0 mm | - | 272 W/m² | - |
| 1777570840 | 12.22° C | 92% | 1009.3 hPa | 0 mm | - | 114 W/m² | - |
| 1777570536 | 12.22° C | 92% | 1009.3 hPa | 0 mm | - | 166 W/m² | - |
| 1777570233 | 12.22° C | 91% | 1009.3 hPa | 0 mm | - | 116 W/m² | - |
| 1777569928 | 12.22° C | 91% | 1009.5 hPa | 0 mm | - | 101 W/m² | - |
| 1777569624 | 12.78° C | 92% | 1009.4 hPa | 0 mm | - | 147 W/m² | - |
| 1777569321 | 12.22° C | 91% | 1009.5 hPa | 0 mm | - | 178 W/m² | - |
| 1777569017 | 12.22° C | 92% | 1009.5 hPa | 0 mm | - | 242 W/m² | - |
| 1777568714 | 11.67° C | 96% | 1009.7 hPa | 0 mm | - | 433 W/m² | - |
| 1777568411 | 11.67° C | 98% | 1009.7 hPa | 0 mm | - | 276 W/m² | - |
| 1777568109 | 11.67° C | 99% | 1009.7 hPa | 0 mm | - | 264 W/m² | - |
| 1777567805 | 11.11° C | 99% | 1010.1 hPa | 0 mm | - | 381 W/m² | - |
| 1777567501 | 11.67° C | 99% | 1010 hPa | 0 mm | - | 241 W/m² | - |
| 1777567198 | 11.11° C | 99% | 1010.2 hPa | 0 mm | - | 184 W/m² | - |
* Rain latest hour (hover to see other rain measurements)
** Current wind speed in m/s (hover to see current wind gust speed)